Time;durP1;ratioP1;P1;durP2;ratioP2;P2;SDS_P1;SDS_P2;PMS_P1;PMS_P2;Temp;Humidity;BMP_temperature;BMP_pressure;BME280_temperature;BME280_humidity;BME280_pressure;Samples;Min_cycle;Max_cycle;Signal;HPM_P1;HPM_P2
2022/12/20 00:02:14;;;;;;;22.67;16.38;;;4.10;1.00;;;;;;6257067;22;20979;-81
2022/12/20 00:04:46;;;;;;;21.63;17.38;;;4.20;1.00;;;;;;6257778;22;20217;-79
2022/12/20 00:07:14;;;;;;;19.33;14.63;;;4.20;1.00;;;;;;6256920;22;20213;-78
2022/12/20 00:09:51;;;;;;;25.30;16.75;;;4.20;1.00;;;;;;6260063;22;20205;-78
2022/12/20 00:12:24;;;;;;;22.70;16.35;;;4.20;1.00;;;;;;6257594;22;20264;-79
2022/12/20 00:14:52;;;;;;;23.02;17.33;;;4.30;1.00;;;;;;6257336;22;20261;-80
2022/12/20 00:17:23;;;;;;;22.77;16.65;;;4.30;1.00;;;;;;6259103;22;20209;-79
2022/12/20 00:19:51;;;;;;;22.35;15.30;;;4.30;1.00;;;;;;6259279;22;20217;-77
2022/12/20 00:22:23;;;;;;;22.48;14.48;;;4.30;1.00;;;;;;6258796;22;20217;-86
2022/12/20 00:24:51;;;;;;;22.98;16.08;;;4.40;1.00;;;;;;6255273;22;20981;-79
2022/12/20 00:27:18;;;;;;;22.75;15.55;;;4.50;1.00;;;;;;6259180;22;20213;-78
2022/12/20 00:29:45;;;;;;;22.67;15.93;;;4.50;1.00;;;;;;6262179;22;20220;-78
2022/12/20 00:32:12;;;;;;;26.80;17.08;;;4.50;1.00;;;;;;6259305;22;20217;-80
2022/12/20 00:34:46;;;;;;;22.30;15.98;;;4.50;1.00;;;;;;6259416;22;20212;-80
2022/12/20 00:37:13;;;;;;;21.58;15.27;;;4.50;1.00;;;;;;6262380;22;20902;-80
2022/12/20 00:39:49;;;;;;;22.63;16.67;;;4.50;1.00;;;;;;6260133;22;20703;-78
2022/12/20 00:42:16;;;;;;;21.30;16.25;;;4.60;1.00;;;;;;6259990;22;20248;-80
2022/12/20 00:44:45;;;;;;;21.05;15.90;;;4.60;1.00;;;;;;6256464;22;20197;-80
2022/12/20 00:47:12;;;;;;;23.52;16.08;;;4.60;1.00;;;;;;6259330;22;20209;-80
2022/12/20 00:49:41;;;;;;;21.55;15.80;;;4.60;1.00;;;;;;6257311;22;20950;-80
2022/12/20 00:52:11;;;;;;;23.40;16.70;;;4.60;1.00;;;;;;6262254;22;20291;-80
2022/12/20 00:54:38;;;;;;;19.70;15.00;;;4.70;1.00;;;;;;6258810;22;20270;-79
2022/12/20 00:57:06;;;;;;;19.63;15.65;;;4.70;1.00;;;;;;6261306;22;20213;-78
2022/12/20 00:59:35;;;;;;;21.63;14.93;;;4.60;1.00;;;;;;6259316;22;20217;-77
2022/12/20 01:02:05;;;;;;;21.05;15.00;;;4.60;1.00;;;;;;6261279;22;20213;-79
2022/12/20 01:04:33;;;;;;;20.17;16.80;;;4.60;1.00;;;;;;6259081;22;20217;-79
2022/12/20 01:07:05;;;;;;;25.13;16.13;;;4.60;1.00;;;;;;6261236;22;20196;-80
2022/12/20 01:09:32;;;;;;;20.65;16.02;;;4.60;1.00;;;;;;6261527;22;20197;-80
2022/12/20 01:12:00;;;;;;;25.35;16.48;;;4.70;1.00;;;;;;6260522;22;20829;-81
2022/12/20 01:14:29;;;;;;;20.98;14.55;;;4.60;1.00;;;;;;6258564;22;20236;-79
2022/12/20 01:16:57;;;;;;;20.10;14.70;;;4.60;1.00;;;;;;6258289;22;20300;-81
2022/12/20 01:19:25;;;;;;;20.15;14.18;;;4.60;1.00;;;;;;6260688;22;20209;-80
2022/12/20 01:21:52;;;;;;;20.77;14.32;;;4.70;1.00;;;;;;6255230;22;20221;-80
2022/12/20 01:24:24;;;;;;;20.15;13.27;;;4.70;1.00;;;;;;6254092;22;20201;-81
2022/12/20 01:26:52;;;;;;;19.52;14.75;;;4.70;1.00;;;;;;6254784;22;20213;-81
2022/12/20 01:29:21;;;;;;;23.38;16.13;;;4.70;1.00;;;;;;6255319;22;20212;-79
2022/12/20 01:31:50;;;;;;;18.88;15.23;;;4.70;1.00;;;;;;6254880;22;20296;-80
2022/12/20 01:34:16;;;;;;;21.00;15.18;;;4.80;1.00;;;;;;6255217;22;20224;-81
2022/12/20 01:36:46;;;;;;;19.52;15.05;;;4.80;1.00;;;;;;6254501;22;20209;-80
2022/12/20 01:39:15;;;;;;;21.25;14.43;;;4.80;1.00;;;;;;6254309;22;20213;-80
2022/12/20 01:41:43;;;;;;;19.67;15.70;;;4.80;1.00;;;;;;6239414;22;20985;-79
2022/12/20 01:44:43;;;;;;;22.75;15.77;;;4.80;1.00;;;;;;6251819;22;20209;-81
2022/12/20 01:47:12;;;;;;;20.15;15.13;;;4.80;1.00;;;;;;6251976;22;20267;-80
2022/12/20 01:49:46;;;;;;;20.35;14.50;;;4.80;1.00;;;;;;6254272;22;20275;-81
2022/12/20 01:52:18;;;;;;;20.60;15.70;;;4.90;1.00;;;;;;6258313;22;20201;-81
2022/12/20 01:54:48;;;;;;;21.35;16.20;;;4.90;1.00;;;;;;6252627;22;20606;-80
2022/12/20 01:57:19;;;;;;;21.30;15.57;;;4.90;1.00;;;;;;6254586;22;20259;-81
2022/12/20 01:59:49;;;;;;;19.65;15.02;;;4.90;1.00;;;;;;6256517;22;20216;-79
2022/12/20 02:02:18;;;;;;;20.25;15.32;;;4.80;1.00;;;;;;6257101;22;20212;-80
2022/12/20 02:04:45;;;;;;;23.35;15.52;;;4.80;1.00;;;;;;6259439;22;20775;-81
2022/12/20 02:07:20;;;;;;;21.83;14.63;;;4.90;1.00;;;;;;6245913;22;20216;-79
2022/12/20 02:09:48;;;;;;;42.10;29.83;;;4.90;1.00;;;;;;6260579;22;20213;-78
2022/12/20 02:12:24;;;;;;;19.40;15.32;;;4.90;1.00;;;;;;6259184;22;20185;-78
2022/12/20 02:15:05;;;;;;;21.77;14.52;;;4.90;1.00;;;;;;6258639;22;20715;-79
2022/12/20 02:17:50;;;;;;;19.80;13.98;;;5.00;1.00;;;;;;6259132;22;20209;-80
2022/12/20 02:20:46;;;;;;;17.40;13.85;;;5.00;1.00;;;;;;6262691;22;20209;-80
2022/12/20 02:23:44;;;;;;;18.42;12.50;;;5.00;1.00;;;;;;6259808;22;20216;-78
2022/12/20 02:26:31;;;;;;;21.13;13.77;;;5.00;1.00;;;;;;6259833;22;20209;-80
2022/12/20 02:29:18;;;;;;;17.90;13.25;;;5.00;1.00;;;;;;6260385;22;20245;-79
2022/12/20 02:31:58;;;;;;;17.15;13.07;;;5.10;1.00;;;;;;6260798;22;20219;-77
2022/12/20 02:34:27;;;;;;;17.65;13.55;;;5.10;1.00;;;;;;6259681;22;20240;-79
2022/12/20 02:37:02;;;;;;;18.17;13.15;;;5.10;1.00;;;;;;6259815;22;20369;-80
2022/12/20 02:39:40;;;;;;;21.98;13.75;;;5.10;1.00;;;;;;6261328;22;20212;-79
2022/12/20 02:42:10;;;;;;;19.67;13.77;;;5.10;1.00;;;;;;6260271;22;20209;-78
2022/12/20 02:47:40;;;;;;;18.55;13.10;;;5.30;1.00;;;;;;6258117;22;20209;-78
2022/12/20 02:50:09;;;;;;;19.77;14.88;;;5.20;1.00;;;;;;6259456;22;20255;-79
2022/12/20 02:52:40;;;;;;;19.48;13.75;;;5.30;1.00;;;;;;6260470;22;20193;-79
2022/12/20 02:55:08;;;;;;;18.25;13.65;;;5.30;1.00;;;;;;6261470;22;20217;-78
2022/12/20 02:57:49;;;;;;;16.35;11.80;;;5.30;1.00;;;;;;6256790;22;20213;-77
2022/12/20 03:00:21;;;;;;;18.90;13.90;;;5.30;1.00;;;;;;6261945;22;20297;-79
2022/12/20 03:05:46;;;;;;;18.65;13.27;;;5.20;1.00;;;;;;6261588;22;20201;-80
2022/12/20 03:08:15;;;;;;;16.75;12.93;;;5.30;1.00;;;;;;6260797;22;20296;-80
2022/12/20 03:10:42;;;;;;;20.30;14.32;;;5.30;1.00;;;;;;6255564;22;20319;-79
2022/12/20 03:13:09;;;;;;;18.00;12.98;;;5.30;1.00;;;;;;6252760;22;20964;-80
2022/12/20 03:15:36;;;;;;;17.15;12.68;;;5.30;1.00;;;;;;6254097;22;20236;-79
2022/12/20 03:18:04;;;;;;;17.55;12.93;;;5.40;1.00;;;;;;6253669;22;20217;-80
2022/12/20 03:20:31;;;;;;;19.63;13.30;;;5.40;1.00;;;;;;6254379;22;20217;-80
2022/12/20 03:22:58;;;;;;;17.45;13.38;;;5.40;1.00;;;;;;6256998;22;20692;-81
2022/12/20 03:25:29;;;;;;;17.08;12.00;;;5.50;1.00;;;;;;6259912;22;20196;-80
2022/12/20 03:27:56;;;;;;;16.25;12.73;;;5.50;1.00;;;;;;6259111;22;20217;-78
2022/12/20 03:30:24;;;;;;;16.83;13.40;;;5.40;1.00;;;;;;6259657;22;20212;-79
2022/12/20 03:32:51;;;;;;;19.88;13.27;;;5.50;1.00;;;;;;6259770;22;20213;-78
2022/12/20 03:35:22;;;;;;;21.48;14.15;;;5.50;1.00;;;;;;6259262;22;20212;-82
2022/12/20 03:37:49;;;;;;;15.02;12.40;;;5.50;1.00;;;;;;6260326;22;20240;-78
2022/12/20 03:40:26;;;;;;;16.98;12.25;;;5.50;1.00;;;;;;6259541;22;20236;-80
2022/12/20 03:42:54;;;;;;;18.08;13.20;;;5.60;1.00;;;;;;6258413;22;20213;-82
2022/12/20 03:45:21;;;;;;;17.55;11.55;;;5.60;1.00;;;;;;6256079;22;20249;-78
2022/12/20 03:47:49;;;;;;;15.95;12.20;;;5.70;1.00;;;;;;6256196;22;20216;-80
2022/12/20 03:50:16;;;;;;;20.00;13.40;;;5.70;1.00;;;;;;6260719;22;20295;-78
2022/12/20 03:52:49;;;;;;;18.13;13.77;;;5.70;1.00;;;;;;6243754;22;20657;-80
2022/12/20 03:55:16;;;;;;;17.90;11.88;;;5.80;1.00;;;;;;6253175;22;20287;-79
2022/12/20 03:57:56;;;;;;;16.55;12.13;;;5.80;1.00;;;;;;6257436;22;20248;-78
2022/12/20 04:00:28;;;;;;;18.95;12.95;;;5.80;1.00;;;;;;6253118;22;20212;-78
2022/12/20 04:02:56;;;;;;;16.88;12.45;;;5.80;1.00;;;;;;6255335;22;20665;-77
2022/12/20 04:05:29;;;;;;;17.17;12.52;;;5.80;1.00;;;;;;6259938;22;20245;-79
2022/12/20 04:07:57;;;;;;;17.50;12.30;;;5.80;1.00;;;;;;6232842;22;20275;-79
2022/12/20 04:10:29;;;;;;;16.15;12.70;;;5.80;1.00;;;;;;6259085;22;20277;-80
2022/12/20 04:12:58;;;;;;;17.08;12.93;;;5.70;1.00;;;;;;6232328;22;20284;-78
2022/12/20 04:15:29;;;;;;;16.50;12.32;;;5.70;1.00;;;;;;6259966;22;20232;-79
2022/12/20 04:17:56;;;;;;;19.13;13.77;;;5.70;1.00;;;;;;6253966;22;20263;-78
2022/12/20 04:20:23;;;;;;;15.40;11.45;;;5.70;1.00;;;;;;6251018;22;20619;-78
2022/12/20 04:22:51;;;;;;;17.45;12.43;;;5.70;1.00;;;;;;6252942;22;20217;-77
2022/12/20 04:25:21;;;;;;;16.02;12.85;;;5.70;1.00;;;;;;6254044;22;20674;-77
2022/12/20 04:27:50;;;;;;;15.45;12.27;;;5.70;1.00;;;;;;6253246;22;20264;-78
2022/12/20 04:30:17;;;;;;;15.75;12.80;;;5.60;1.00;;;;;;6254153;22;20197;-76
2022/12/20 04:32:50;;;;;;;17.70;13.13;;;5.60;1.00;;;;;;6250848;22;20243;-77
2022/12/20 04:35:19;;;;;;;18.38;13.05;;;5.60;1.00;;;;;;6255996;22;20220;-77
2022/12/20 04:37:47;;;;;;;18.98;12.82;;;5.50;1.00;;;;;;6254836;22;20209;-77
2022/12/20 04:40:20;;;;;;;15.23;12.27;;;5.50;1.00;;;;;;6252489;22;20216;-79
2022/12/20 04:42:51;;;;;;;16.85;12.40;;;5.50;1.00;;;;;;6251798;22;20223;-81
2022/12/20 04:45:18;;;;;;;19.50;12.88;;;5.40;1.00;;;;;;6252705;22;20220;-79
2022/12/20 04:47:45;;;;;;;18.38;13.85;;;5.40;1.00;;;;;;6256221;22;20209;-79
2022/12/20 04:50:12;;;;;;;15.70;11.85;;;5.40;1.00;;;;;;6254746;22;20213;-78
2022/12/20 04:55:24;;;;;;;18.63;12.85;;;5.30;1.00;;;;;;6256422;22;20217;-79
2022/12/20 04:57:53;;;;;;;17.95;13.23;;;5.30;1.00;;;;;;6256260;22;20217;-80
2022/12/20 05:00:22;;;;;;;18.27;12.95;;;5.20;1.00;;;;;;6255693;22;20212;-78
2022/12/20 05:02:50;;;;;;;16.90;13.00;;;5.20;1.00;;;;;;6255436;22;20245;-79
2022/12/20 05:05:17;;;;;;;18.33;12.52;;;5.20;1.00;;;;;;6227674;22;20665;-78
2022/12/20 05:07:44;;;;;;;18.98;13.43;;;5.30;1.00;;;;;;6250941;22;20223;-79
2022/12/20 05:10:11;;;;;;;18.88;12.30;;;5.20;1.00;;;;;;6251799;22;20266;-79
2022/12/20 05:12:38;;;;;;;19.48;13.32;;;5.20;1.00;;;;;;6254887;22;20212;-77
2022/12/20 05:15:09;;;;;;;15.38;12.93;;;5.10;1.00;;;;;;6256639;22;20680;-78
2022/12/20 05:17:36;;;;;;;18.48;11.70;;;5.10;1.00;;;;;;6254269;22;20272;-79
2022/12/20 05:20:04;;;;;;;16.95;12.82;;;5.10;1.00;;;;;;6254745;22;20685;-77
2022/12/20 05:28:10;;;;;;;19.10;13.02;;;5.20;1.00;;;;;;6257329;22;20209;-79
2022/12/20 05:31:01;;;;;;;15.65;12.15;;;5.30;1.00;;;;;;6261285;22;20249;-81
2022/12/20 05:33:31;;;;;;;17.10;12.52;;;5.30;1.00;;;;;;6256072;22;20205;-78
2022/12/20 05:36:00;;;;;;;18.58;12.75;;;5.30;1.00;;;;;;6256388;22;20212;-79
2022/12/20 05:48:32;;;;;;;18.40;11.75;;;5.40;1.00;;;;;;6257786;22;20205;-78
2022/12/20 05:51:31;;;;;;;16.67;13.52;;;5.40;1.00;;;;;;6254493;22;20236;-78
2022/12/20 05:54:04;;;;;;;16.85;13.25;;;5.40;1.00;;;;;;6254935;22;20256;-76
2022/12/20 05:56:31;;;;;;;18.02;12.75;;;5.50;1.00;;;;;;6222225;22;20217;-78
2022/12/20 05:59:01;;;;;;;20.05;12.73;;;5.50;1.00;;;;;;6255217;22;20221;-77
2022/12/20 06:01:28;;;;;;;18.00;12.70;;;5.50;1.00;;;;;;6252524;22;20215;-77
2022/12/20 06:04:03;;;;;;;18.98;13.50;;;5.50;1.00;;;;;;6253010;22;20704;-78
2022/12/20 06:06:30;;;;;;;19.70;14.13;;;5.50;1.00;;;;;;6253861;22;20208;-76
2022/12/20 06:09:04;;;;;;;18.60;13.55;;;5.50;1.00;;;;;;6254571;22;20681;-78
2022/12/20 06:11:32;;;;;;;17.08;12.15;;;5.50;1.00;;;;;;6256426;22;20219;-80
2022/12/20 06:14:01;;;;;;;19.42;14.13;;;5.60;1.00;;;;;;6257863;22;20252;-79
2022/12/20 06:16:30;;;;;;;16.42;12.52;;;5.50;1.00;;;;;;6262692;22;20237;-78
2022/12/20 06:19:11;;;;;;;17.70;13.20;;;5.50;1.00;;;;;;6258523;22;20205;-77
2022/12/20 06:21:42;;;;;;;16.27;13.30;;;5.50;1.00;;;;;;6258464;22;20248;-77
2022/12/20 06:24:10;;;;;;;18.70;13.15;;;5.60;1.00;;;;;;6260015;22;21071;-79
2022/12/20 06:26:40;;;;;;;17.33;13.80;;;5.60;1.00;;;;;;6262627;22;20273;-84
2022/12/20 06:29:12;;;;;;;19.15;12.48;;;5.70;1.00;;;;;;6270908;22;20185;-85
2022/12/20 06:31:39;;;;;;;20.40;14.13;;;5.80;1.00;;;;;;6261381;22;20216;-79
2022/12/20 06:34:11;;;;;;;17.65;12.65;;;5.80;1.00;;;;;;6262256;22;20209;-78
2022/12/20 06:36:41;;;;;;;18.55;13.65;;;5.80;1.00;;;;;;6258394;22;20240;-77
2022/12/20 06:39:14;;;;;;;20.80;13.60;;;5.90;1.00;;;;;;6256187;22;20216;-78
2022/12/20 06:41:42;;;;;;;19.50;13.73;;;5.90;1.00;;;;;;6253090;22;20295;-77
2022/12/20 06:44:10;;;;;;;18.65;13.35;;;5.90;1.00;;;;;;6260219;22;20248;-79
2022/12/20 06:46:37;;;;;;;16.48;13.55;;;5.90;1.00;;;;;;6255105;22;20834;-79
2022/12/20 06:49:04;;;;;;;17.50;13.40;;;5.90;1.00;;;;;;6255598;22;20205;-78
2022/12/20 06:51:34;;;;;;;19.15;13.82;;;5.80;1.00;;;;;;6257040;22;20205;-80
2022/12/20 06:54:01;;;;;;;19.95;13.50;;;5.80;1.00;;;;;;6260567;22;20213;-80
2022/12/20 06:56:28;;;;;;;20.13;14.70;;;5.80;1.00;;;;;;6261115;22;20212;-81
2022/12/20 06:58:59;;;;;;;18.58;13.75;;;5.70;1.00;;;;;;6262001;22;20197;-77
2022/12/20 07:01:26;;;;;;;18.83;13.73;;;5.80;1.00;;;;;;6259574;22;20543;-76
2022/12/20 07:03:55;;;;;;;41.63;24.90;;;5.80;1.00;;;;;;6260694;22;20320;-78
2022/12/20 07:06:21;;;;;;;21.23;15.45;;;5.80;1.00;;;;;;6262729;22;20211;-81
2022/12/20 07:08:50;;;;;;;20.50;13.88;;;5.80;1.00;;;;;;6258497;22;20916;-81
2022/12/20 07:11:20;;;;;;;16.05;12.43;;;5.80;1.00;;;;;;6260473;22;20205;-80
2022/12/20 07:13:49;;;;;;;19.75;14.95;;;5.80;1.00;;;;;;6260906;22;20213;-81
2022/12/20 07:16:20;;;;;;;20.70;13.85;;;5.80;1.00;;;;;;6262517;22;20229;-81
2022/12/20 07:18:49;;;;;;;20.45;15.13;;;5.80;1.00;;;;;;6258885;22;20522;-80
2022/12/20 07:21:20;;;;;;;18.75;13.65;;;5.80;1.00;;;;;;6253669;22;20270;-83
2022/12/20 07:23:52;;;;;;;20.80;15.20;;;5.80;1.00;;;;;;6260079;22;20216;-80
2022/12/20 07:26:20;;;;;;;18.75;14.85;;;5.80;1.00;;;;;;6259981;22;20205;-79
2022/12/20 07:28:47;;;;;;;20.20;14.68;;;5.90;1.00;;;;;;6258244;22;20320;-78
2022/12/20 07:31:19;;;;;;;20.25;14.57;;;5.90;1.00;;;;;;6260947;22;20217;-79
2022/12/20 07:33:46;;;;;;;20.63;15.05;;;5.90;1.00;;;;;;6262157;22;20209;-81
2022/12/20 07:36:19;;;;;;;18.73;14.70;;;5.90;1.00;;;;;;6259490;22;20264;-79
2022/12/20 07:38:47;;;;;;;20.20;13.75;;;6.00;1.00;;;;;;6249112;22;20223;-81
2022/12/20 07:41:20;;;;;;;21.52;15.05;;;6.00;1.00;;;;;;6255676;22;20680;-80
2022/12/20 07:43:49;;;;;;;19.60;15.95;;;6.00;1.00;;;;;;6256644;22;20259;-77
2022/12/20 07:46:20;;;;;;;20.90;14.82;;;6.10;1.00;;;;;;6257445;22;20216;-78
2022/12/20 07:48:47;;;;;;;21.58;15.70;;;6.20;1.00;;;;;;6254504;22;20288;-80
2022/12/20 07:51:21;;;;;;;22.55;15.57;;;6.20;1.00;;;;;;6258376;22;20236;-77
2022/12/20 07:53:52;;;;;;;17.67;14.52;;;6.20;1.00;;;;;;6257528;22;20216;-78
2022/12/20 07:56:23;;;;;;;23.65;14.25;;;6.20;1.00;;;;;;6241835;22;20220;-77
2022/12/20 07:58:52;;;;;;;22.08;16.65;;;6.30;1.00;;;;;;6255178;22;20661;-77
2022/12/20 08:01:21;;;;;;;20.40;15.38;;;6.30;1.00;;;;;;6258277;22;20201;-78
2022/12/20 08:03:52;;;;;;;18.63;15.15;;;6.40;1.00;;;;;;6257605;22;20217;-81
2022/12/20 08:06:19;;;;;;;18.95;14.68;;;6.30;1.00;;;;;;6247701;22;20217;-79
2022/12/20 08:08:50;;;;;;;22.40;17.48;;;6.30;1.00;;;;;;6254334;22;20225;-80
2022/12/20 08:11:23;;;;;;;22.63;16.70;;;6.30;1.00;;;;;;6258059;22;20201;-76
2022/12/20 08:13:51;;;;;;;23.45;17.90;;;6.40;1.00;;;;;;6254361;22;20267;-80
2022/12/20 08:16:20;;;;;;;21.83;16.23;;;6.40;1.00;;;;;;6257146;22;20973;-79
2022/12/20 08:18:47;;;;;;;19.52;16.73;;;6.40;1.00;;;;;;6257236;22;20193;-80
2022/12/20 08:21:15;;;;;;;19.17;14.57;;;6.40;1.00;;;;;;6258165;22;20286;-80
2022/12/20 08:23:42;;;;;;;17.45;14.90;;;6.50;1.00;;;;;;6256558;22;20280;-81
2022/12/20 08:26:09;;;;;;;22.88;16.63;;;6.40;1.00;;;;;;6254755;22;20627;-79
2022/12/20 08:28:40;;;;;;;20.33;15.88;;;6.40;1.00;;;;;;6257410;22;20220;-81
2022/12/20 08:31:09;;;;;;;23.25;15.90;;;6.30;1.00;;;;;;6254870;22;20224;-81
2022/12/20 08:33:37;;;;;;;21.33;16.65;;;6.30;1.00;;;;;;6256180;22;20260;-82
2022/12/20 08:36:07;;;;;;;23.42;16.52;;;6.30;1.00;;;;;;6260971;22;20220;-85
2022/12/20 08:38:34;;;;;;;22.20;15.80;;;6.30;1.00;;;;;;6261716;22;20201;-85
2022/12/20 08:41:04;;;;;;;20.98;15.43;;;6.30;1.00;;;;;;6262387;22;20216;-85
2022/12/20 08:43:31;;;;;;;22.90;16.55;;;6.30;1.00;;;;;;6261814;22;20733;-85
2022/12/20 08:46:00;;;;;;;20.67;15.60;;;6.40;1.00;;;;;;6237121;22;20248;-83
2022/12/20 08:48:28;;;;;;;22.63;15.82;;;6.40;1.00;;;;;;6254469;22;20688;-86
2022/12/20 08:51:01;;;;;;;20.00;15.98;;;6.40;1.00;;;;;;6260328;22;20243;-86
2022/12/20 08:53:28;;;;;;;22.55;15.65;;;6.30;1.00;;;;;;6253410;22;20513;-86
2022/12/20 08:56:06;;;;;;;20.92;15.20;;;6.40;1.00;;;;;;6242689;22;20217;-86
2022/12/20 08:58:33;;;;;;;23.50;17.42;;;6.40;1.00;;;;;;6259105;22;20215;-86
2022/12/20 09:01:04;;;;;;;22.25;16.85;;;6.40;1.00;;;;;;6262857;22;20209;-86
2022/12/20 09:03:31;;;;;;;23.90;17.73;;;6.40;1.00;;;;;;6235307;22;20240;-84
2022/12/20 09:06:07;;;;;;;22.02;15.82;;;6.40;1.00;;;;;;6263478;22;20213;-86
2022/12/20 09:08:34;;;;;;;21.42;16.67;;;6.40;1.00;;;;;;6233977;22;20349;-86
2022/12/20 09:11:05;;;;;;;23.27;16.00;;;6.50;1.00;;;;;;6246358;22;20243;-86
2022/12/20 09:13:32;;;;;;;24.08;15.55;;;6.50;1.00;;;;;;6262181;22;20213;-83
2022/12/20 09:16:03;;;;;;;23.08;16.92;;;6.50;1.00;;;;;;6266824;22;20943;-86
2022/12/20 09:18:32;;;;;;;23.67;16.95;;;6.50;1.00;;;;;;6265129;22;20213;-86
2022/12/20 09:21:02;;;;;;;23.98;16.67;;;6.60;1.00;;;;;;6261746;22;20259;-87
2022/12/20 09:23:30;;;;;;;23.58;16.73;;;6.60;1.00;;;;;;6263427;22;20196;-86
2022/12/20 09:26:07;;;;;;;21.27;16.60;;;6.70;1.00;;;;;;6251543;22;20206;-88
2022/12/20 09:28:42;;;;;;;23.70;16.75;;;6.80;1.00;;;;;;6262468;22;20205;-85
2022/12/20 09:31:13;;;;;;;20.20;15.98;;;6.80;1.00;;;;;;6262934;22;20208;-86
2022/12/20 09:33:43;;;;;;;21.88;17.08;;;6.80;1.00;;;;;;6265573;22;20224;-86
2022/12/20 09:36:13;;;;;;;22.42;17.40;;;6.90;1.00;;;;;;6236815;22;20233;-84
2022/12/20 09:38:41;;;;;;;23.33;16.88;;;6.90;1.00;;;;;;6261020;22;20213;-85
2022/12/20 09:41:17;;;;;;;24.83;17.05;;;7.10;1.00;;;;;;6263447;22;20217;-85
2022/12/20 09:43:44;;;;;;;24.23;17.02;;;7.20;1.00;;;;;;6265116;22;20236;-85
2022/12/20 09:46:15;;;;;;;22.60;16.95;;;7.40;1.00;;;;;;6264099;22;20213;-86
2022/12/20 09:48:46;;;;;;;21.92;15.75;;;7.50;1.00;;;;;;6263924;22;20208;-85
2022/12/20 09:51:22;;;;;;;21.52;15.63;;;7.60;1.00;;;;;;6264503;22;20996;-85
2022/12/20 09:54:00;;;;;;;22.20;15.38;;;7.80;1.00;;;;;;6258311;22;20244;-86
2022/12/20 09:56:30;;;;;;;22.05;14.68;;;7.90;1.00;;;;;;6263955;22;20292;-87
2022/12/20 09:59:02;;;;;;;23.20;16.88;;;7.80;1.00;;;;;;6263057;22;20217;-86
2022/12/20 10:01:51;;;;;;;19.33;14.88;;;7.90;1.00;;;;;;6247775;22;20213;-82
2022/12/20 10:04:28;;;;;;;19.42;15.05;;;8.00;1.00;;;;;;6265403;22;20309;-82
2022/12/20 10:07:20;;;;;;;21.02;15.25;;;8.10;1.00;;;;;;6262488;22;20994;-87
2022/12/20 10:10:11;;;;;;;18.90;14.30;;;8.30;1.00;;;;;;6263875;22;20231;-83
2022/12/20 10:16:01;;;;;;;17.33;13.35;;;8.30;1.00;;;;;;6234461;22;20233;-80
2022/12/20 10:18:46;;;;;;;16.88;13.60;;;8.30;1.00;;;;;;6246209;22;20212;-81
2022/12/20 10:21:30;;;;;;;20.40;13.82;;;8.50;1.00;;;;;;6239878;22;20361;-82
2022/12/20 10:24:07;;;;;;;20.67;14.10;;;8.50;1.00;;;;;;6232426;22;20251;-82
2022/12/20 10:26:47;;;;;;;18.25;13.50;;;8.50;1.00;;;;;;6264061;22;20468;-80
2022/12/20 10:29:21;;;;;;;15.90;12.70;;;8.50;1.00;;;;;;6263535;22;20330;-80
2022/12/20 10:31:51;;;;;;;15.48;12.77;;;8.40;1.00;;;;;;6262743;22;20197;-82
2022/12/20 10:34:20;;;;;;;13.98;11.73;;;8.30;1.00;;;;;;6263355;22;20251;-82
2022/12/20 10:37:10;;;;;;;19.00;13.33;;;8.40;1.00;;;;;;6263009;22;20213;-81
2022/12/20 10:40:01;;;;;;;19.95;13.15;;;8.40;1.00;;;;;;6262444;22;20422;-80
2022/12/20 10:42:44;;;;;;;17.47;12.90;;;8.40;1.00;;;;;;6254284;22;20217;-80
2022/12/20 10:45:31;;;;;;;16.98;13.00;;;8.40;1.00;;;;;;6257239;22;20434;-80
2022/12/20 10:48:03;;;;;;;17.75;11.93;;;8.40;1.00;;;;;;6255988;22;20201;-79
2022/12/20 10:50:37;;;;;;;18.30;12.50;;;8.40;1.00;;;;;;6256870;22;20220;-79
2022/12/20 10:53:24;;;;;;;16.20;11.73;;;8.70;1.00;;;;;;6258028;22;20494;-79
2022/12/20 10:55:52;;;;;;;17.30;13.30;;;9.20;1.00;;;;;;6230142;22;20440;-81
2022/12/20 10:58:31;;;;;;;21.93;13.30;;;9.40;1.00;;;;;;6254180;22;20444;-80
2022/12/20 11:01:07;;;;;;;21.87;13.53;;;9.60;1.00;;;;;;6253662;22;20399;-81
2022/12/20 11:03:50;;;;;;;16.23;12.37;;;9.80;1.00;;;;;;6255570;22;20439;-78
2022/12/20 11:06:24;;;;;;;17.30;11.87;;;9.70;1.00;;;;;;6257629;22;20428;-80
2022/12/20 11:08:51;;;;;;;16.80;12.27;;;10.00;1.00;;;;;;6254909;22;20475;-79
2022/12/20 11:11:20;;;;;;;16.10;12.00;;;10.20;1.00;;;;;;6253668;22;20411;-81
2022/12/20 11:13:50;;;;;;;18.97;11.57;;;10.50;1.00;;;;;;6254362;22;20415;-80
2022/12/20 11:16:37;;;;;;;15.30;11.90;;;10.80;1.00;;;;;;6254873;22;20545;-79
2022/12/20 11:19:30;;;;;;;16.73;13.17;;;10.60;1.00;;;;;;6252008;22;20383;-80
2022/12/20 11:22:06;;;;;;;16.00;11.70;;;10.40;1.00;;;;;;6252166;22;20412;-81
2022/12/20 11:24:47;;;;;;;17.00;11.57;;;10.20;1.00;;;;;;6254684;22;20527;-80
2022/12/20 11:27:31;;;;;;;15.63;11.50;;;9.90;1.00;;;;;;6251092;22;20444;-80
2022/12/20 11:30:09;;;;;;;17.10;11.77;;;9.70;1.00;;;;;;6255274;22;20416;-81
2022/12/20 11:32:56;;;;;;;18.83;13.03;;;9.50;1.00;;;;;;6252354;22;20440;-80
2022/12/20 11:35:33;;;;;;;16.77;11.03;;;9.50;1.00;;;;;;6258898;22;20392;-84
2022/12/20 11:38:17;;;;;;;17.20;13.73;;;9.50;1.00;;;;;;6264869;22;20408;-86
2022/12/20 11:40:52;;;;;;;17.20;12.03;;;9.50;1.00;;;;;;6265076;22;20376;-82
2022/12/20 11:44:10;;;;;;;15.67;12.50;;;9.50;1.00;;;;;;6263983;22;20400;-78
2022/12/20 11:46:53;;;;;;;15.93;10.70;;;9.50;1.00;;;;;;6169308;23;20431;-85
2022/12/20 11:49:37;;;;;;;14.43;11.53;;;9.60;1.00;;;;;;6252648;22;20431;-84
2022/12/20 11:52:14;;;;;;;16.13;11.37;;;9.60;1.00;;;;;;6259111;22;20416;-80
2022/12/20 11:54:53;;;;;;;16.73;12.30;;;9.80;1.00;;;;;;6258690;22;20511;-80
2022/12/20 11:57:28;;;;;;;14.17;11.87;;;9.80;1.00;;;;;;6259948;22;20416;-85
2022/12/20 11:59:58;;;;;;;15.77;11.60;;;9.80;1.00;;;;;;6263543;22;21265;-86
2022/12/20 12:02:35;;;;;;;15.83;11.33;;;9.60;1.00;;;;;;6262093;22;20440;-78
2022/12/20 12:05:18;;;;;;;16.17;11.60;;;9.50;1.00;;;;;;6259853;22;20470;-80
2022/12/20 12:07:56;;;;;;;16.13;11.90;;;9.40;1.00;;;;;;6257011;22;20399;-79
2022/12/20 12:10:31;;;;;;;14.33;11.87;;;9.30;1.00;;;;;;6266356;22;20468;-89
2022/12/20 12:13:05;;;;;;;15.40;11.03;;;9.40;1.00;;;;;;6265046;22;20418;-85
2022/12/20 12:15:39;;;;;;;15.97;11.03;;;9.50;1.00;;;;;;6262950;22;20431;-87
2022/12/20 12:18:14;;;;;;;15.73;11.37;;;9.60;1.00;;;;;;6263927;22;20387;-87
2022/12/20 12:20:54;;;;;;;14.63;11.20;;;9.70;1.00;;;;;;6262811;22;21138;-87
2022/12/20 12:23:30;;;;;;;15.83;12.10;;;9.60;1.00;;;;;;6264956;22;20420;-88
2022/12/20 12:26:15;;;;;;;19.33;13.23;;;9.50;1.00;;;;;;6252774;22;20952;-86
2022/12/20 12:28:42;;;;;;;15.63;11.17;;;9.50;1.00;;;;;;6261093;22;20428;-83
2022/12/20 12:31:18;;;;;;;17.67;12.10;;;9.50;1.00;;;;;;6259217;22;20429;-83
2022/12/20 12:34:09;;;;;;;14.20;11.17;;;9.70;1.00;;;;;;6262004;22;20519;-85
2022/12/20 12:37:01;;;;;;;19.43;11.13;;;9.70;1.00;;;;;;6258150;22;20439;-83
2022/12/20 12:39:58;;;;;;;14.03;11.33;;;9.70;1.00;;;;;;6264322;22;20393;-81
2022/12/20 12:42:58;;;;;;;13.25;10.93;;;9.70;1.00;;;;;;6251053;22;20404;-83
2022/12/20 12:45:36;;;;;;;14.80;11.13;;;9.60;1.00;;;;;;6185542;22;20201;-80
2022/12/20 12:48:14;;;;;;;15.50;11.30;;;9.50;1.00;;;;;;6238313;22;20966;-81
2022/12/20 12:50:49;;;;;;;18.63;13.00;;;9.60;1.00;;;;;;6262534;22;20392;-82
2022/12/20 12:53:20;;;;;;;16.80;11.60;;;9.80;1.00;;;;;;6263964;22;20423;-84
2022/12/20 12:55:51;;;;;;;16.15;12.00;;;9.70;1.00;;;;;;6262574;22;20803;-83
2022/12/20 12:58:35;;;;;;;16.25;11.90;;;9.70;1.00;;;;;;6261076;22;21076;-82
2022/12/20 13:01:13;;;;;;;19.33;12.10;;;9.40;1.00;;;;;;6262266;22;20221;-82
2022/12/20 13:03:48;;;;;;;14.60;10.73;;;9.30;1.00;;;;;;6258185;22;20424;-81
2022/12/20 13:07:11;;;;;;;15.23;11.87;;;9.30;1.00;;;;;;6252492;22;20456;-82
2022/12/20 13:09:44;;;;;;;17.08;11.18;;;9.40;1.00;;;;;;6171894;23;20752;-81
2022/12/20 13:12:51;;;;;;;13.57;10.90;;;9.70;1.00;;;;;;6252526;22;20209;-81
2022/12/20 13:16:09;;;;;;;13.60;10.60;;;9.80;1.00;;;;;;6267730;22;20395;-83
2022/12/20 13:18:37;;;;;;;15.00;11.70;;;9.90;1.00;;;;;;6263711;22;20439;-83
2022/12/20 13:21:49;;;;;;;16.73;11.50;;;9.80;1.00;;;;;;6264404;22;20413;-82
2022/12/20 13:24:55;;;;;;;16.40;12.30;;;9.60;1.00;;;;;;6230286;22;20470;-84
2022/12/20 13:27:35;;;;;;;14.90;11.03;;;9.40;1.00;;;;;;6265724;22;20432;-82
2022/12/20 13:30:29;;;;;;;14.33;10.83;;;9.30;1.00;;;;;;6260577;22;20405;-82
2022/12/20 13:33:13;;;;;;;14.47;11.03;;;9.20;1.00;;;;;;6245203;22;21022;-84
2022/12/20 13:36:31;;;;;;;15.17;11.43;;;9.10;1.00;;;;;;6249397;22;20916;-80
2022/12/20 13:39:00;;;;;;;15.07;11.00;;;9.00;1.00;;;;;;6138482;23;20908;-83
2022/12/20 13:41:48;;;;;;;13.93;10.38;;;9.00;1.00;;;;;;6140229;23;20384;-84
2022/12/20 13:50:53;;;;;;;14.85;12.80;;;8.90;1.00;;;;;;6200597;22;20197;-81
2022/12/20 13:53:30;;;;;;;17.15;11.70;;;8.90;1.00;;;;;;6259841;22;20224;-82